MSC Florentina — HPFH — position and weather

sailwx.info

Track history (hours):
 
Tides and Currents Weather Stations Pressure Air Temp Water Temp Dewpoint Dewpoint Depression Visibility Wind Speed Wind Dir Waves Ship Positions

MSC Florentina

Last reported at 2015-May-22 13:19 UTC. Time now 2015-May-22 16:04 UTC.
Position N 39°20' W 000°11'.

Length 300 m; draft 11.8 m.

Type: Ship. MMSI: 352870000.

Date/timePositionNaut miles runAvg speedWind from/ knotsBaromVisibWave heightAir tempDewpointWater temp
2015-May-22 13:19N 39°20' W 000°11'911.4
2015-May-22 12:34N 39°26' W 000°19'0 0.3
2015-May-22 11:31N 39°26' W 000°19'0 0.0
2015-May-22 10:31N 39°26' W 000°19'0 0.0
2015-May-22 09:31N 39°26' W 000°19'0 0.0
2015-May-22 08:31N 39°26' W 000°19'0 0.0
2015-May-22 07:31N 39°26' W 000°19'0 0.0
2015-May-22 06:31N 39°26' W 000°19'0 0.0
2015-May-22 05:31N 39°26' W 000°19'0 0.0
2015-May-22 04:31N 39°26' W 000°19'0 0.0
2015-May-22 03:31N 39°26' W 000°19'0 0.0
2015-May-22 02:31N 39°26' W 000°19'0 0.0
2015-May-22 01:31N 39°26' W 000°19'0 0.0
2015-May-22 00:31N 39°26' W 000°19'0 0.0
2015-May-21 23:28N 39°26' W 000°19'0 0.0
2015-May-21 22:31N 39°26' W 000°19'0 0.0
2015-May-21 21:31N 39°26' W 000°19'0 0.0
2015-May-21 20:31N 39°26' W 000°19'0 0.0
2015-May-21 19:28N 39°26' W 000°19'0 0.0
2015-May-21 18:31N 39°26' W 000°19'0 0.0
2015-May-21 17:31N 39°26' W 000°19'0 0.0
2015-May-21 16:31N 39°26' W 000°19'5 4.8
2015-May-21 15:33N 39°27' W 000°13'41811.6
2015-May-20 03:33N 43°13' E 007°36'1716.8
2015-May-20 02:33N 43°20' E 007°57'1716.7
2015-May-20 01:33N 43°27' E 008°17'1716.6
2015-May-20 00:33N 43°35' E 008°38'1616.4
2015-May-19 23:33N 43°42' E 008°58'1616.2
2015-May-19 22:33N 43°49' E 009°18'1716.7
2015-May-19 21:33N 43°56' E 009°39'1211.9
2015-May-19 20:33N 44°05' E 009°51'2 1.6
2015-May-19 19:31N 44°06' E 009°51'0 0.0
2015-May-19 18:31N 44°06' E 009°51'0 0.0
2015-May-19 17:31N 44°06' E 009°51'0 0.0
2015-May-19 16:31N 44°06' E 009°51'0 0.0
2015-May-19 15:19N 44°06' E 009°51'0 0.0
2015-May-19 14:31N 44°06' E 009°51'0 0.0
2015-May-19 13:31N 44°06' E 009°51'0 0.0
2015-May-19 12:31N 44°06' E 009°51'0 0.0
2015-May-19 11:31N 44°06' E 009°51'0 0.0
2015-May-19 10:31N 44°06' E 009°51'0 0.0
2015-May-19 09:31N 44°06' E 009°51'0 0.0
2015-May-19 08:31N 44°06' E 009°51'0 0.0
2015-May-19 07:31N 44°06' E 009°51'0 0.0
2015-May-19 06:31N 44°06' E 009°51'0 0.0
2015-May-19 05:31N 44°06' E 009°51'0 0.0
2015-May-19 04:28N 44°06' E 009°51'0 0.0
2015-May-19 03:31N 44°06' E 009°51'0 0.0
2015-May-19 02:31N 44°06' E 009°51'0 0.0
2015-May-19 01:31N 44°06' E 009°51'0 0.0
2015-May-19 00:31N 44°06' E 009°51'0 0.0
2015-May-18 23:31N 44°06' E 009°51'0 0.0
2015-May-18 22:31N 44°06' E 009°51'0 0.0
2015-May-18 21:31N 44°06' E 009°51'0 0.0
2015-May-18 20:31N 44°06' E 009°51'0 0.0
2015-May-18 19:31N 44°06' E 009°51'0 0.0
2015-May-18 18:31N 44°06' E 009°51'0 0.0
2015-May-18 17:31N 44°06' E 009°51'0 0.0
2015-May-18 16:31N 44°06' E 009°51'0 0.0
2015-May-18 15:31N 44°06' E 009°51'0 0.0
2015-May-18 14:31N 44°06' E 009°51'0 0.0
2015-May-18 13:31N 44°06' E 009°51'0 0.0
2015-May-18 12:31N 44°06' E 009°51'0 0.0
2015-May-18 11:31N 44°06' E 009°51'0 0.0
2015-May-18 10:31N 44°06' E 009°51'1 0.6
2015-May-18 09:33N 44°06' E 009°51'8 7.7
2015-May-18 08:33N 43°59' E 009°54'1212.3
2015-May-18 07:33N 43°47' E 009°49'1515.0
2015-May-18 06:33N 43°32' E 009°43'1515.3
2015-May-18 05:33N 43°17' E 009°42'1515.1
2015-May-18 04:33N 43°02' E 009°40'1514.9
2015-May-18 03:33N 42°50' E 009°52'3115.4
2015-May-18 01:33N 42°30' E 010°25'1615.5
2015-May-18 00:32N 42°20' E 010°41'12816.0
2015-May-17 16:33N 41°06' E 013°01'1616.1
2015-May-17 15:33N 40°57' E 013°18'1616.0
2015-May-17 14:33N 40°48' E 013°35'1715.6
2015-May-17 13:29N 40°40' E 013°55'1516.0
2015-May-17 12:33N 40°46' E 014°13'6 5.6
2015-May-17 11:32N 40°50' E 014°17'1 0.1
2015-May-16 13:33N 40°49' E 014°17'9 9.2
2015-May-16 12:33N 40°40' E 014°13'1616.2
2015-May-16 11:33N 40°24' E 014°16'1919.4
2015-May-16 10:33N 40°08' E 014°29'87 2.3
2015-May-14 21:11N 38°41' E 014°17'913.5
2015-May-14 20:33N 38°41' E 014°07'1313.4
2015-May-14 19:33N 38°39' E 013°50'1313.4
2015-May-14 18:33N 38°38' E 013°33'1313.1
2015-May-14 17:34N 38°36' E 013°16'1313.4
2015-May-14 16:34N 38°35' E 012°59'1413.7
2015-May-14 15:34N 38°35' E 012°41'1413.6
2015-May-14 14:33N 38°36' E 012°24'1413.7
2015-May-14 13:33N 38°36' E 012°06'1413.8
2015-May-14 12:32N 38°36' E 011°49'1313.6
2015-May-14 11:33N 38°37' E 011°31'1413.7
2015-May-14 10:34N 38°37' E 011°14'1413.8
2015-May-14 09:34N 38°37' E 010°56'3314.1
2015-May-14 07:15N 38°38' E 010°15'1317.3
2015-May-14 06:31N 38°38' E 009°58'1414.9
2015-May-14 05:33N 38°39' E 009°40'1514.2
2015-May-14 04:32N 38°39' E 009°21'1414.1
2015-May-14 03:33N 38°39' E 009°04'1514.5
2015-May-14 02:32N 38°40' E 008°45'2914.5
2015-May-14 00:32N 38°49' E 008°10'3614.6
2015-May-13 22:05N 39°06' E 007°29'6914.3
2015-May-13 17:13N 39°39' E 006°10'1014.9
2015-May-13 16:33N 39°43' E 005°59'1515.0
2015-May-13 15:33N 39°50' E 005°41'1515.4
2015-May-13 14:34N 39°58' E 005°24'10014.1
2015-May-13 07:31N 40°44' E 003°29'1313.7
2015-May-13 06:33N 40°51' E 003°13'1414.5
2015-May-13 05:33N 40°58' E 002°57'1414.4
2015-May-13 04:33N 41°04' E 002°39'1413.7
2015-May-13 03:33N 41°10' E 002°23'1312.6
2015-May-13 02:33N 41°18' E 002°10'1 1.2
2015-May-13 01:33N 41°18' E 002°09'0 0.0
2015-May-13 00:32N 41°18' E 002°09'0 0.0
2015-May-12 23:17N 41°18' E 002°09'0 0.0
2015-May-12 22:26N 41°18' E 002°09'0 0.0
2015-May-12 21:29N 41°18' E 002°09'0 0.0
2015-May-12 19:14N 41°18' E 002°09'0 0.0
2015-May-12 18:26N 41°18' E 002°09'0 0.0
2015-May-12 17:32N 41°18' E 002°09'0 0.0
2015-May-12 16:32N 41°18' E 002°09'1 0.8
2015-May-12 15:30N 41°19' E 002°10'6 6.9
2015-May-12 14:33N 41°12' E 002°10'1919.5
2015-May-12 13:33N 40°55' E 001°57'  
Track history (hours):
 
Tides and Currents Weather Stations Pressure Air Temp Water Temp Dewpoint Dewpoint Depression Visibility Wind Speed Wind Dir Waves Ship Positions

MSC Florentina

Last reported at 2015-May-22 13:19 UTC. Time now 2015-May-22 16:04 UTC.
Position N 39°20' W 000°11'.

Length 300 m; draft 11.8 m.

Type: Ship. MMSI: 352870000.

Date/timePositionNaut miles runAvg speedWind from/ knotsBaromVisibWave heightAir tempDewpointWater temp
2015-May-22 13:19N 39°20' W 000°11'911.4
2015-May-22 12:34N 39°26' W 000°19'0 0.3
2015-May-22 11:31N 39°26' W 000°19'0 0.0
2015-May-22 10:31N 39°26' W 000°19'0 0.0
2015-May-22 09:31N 39°26' W 000°19'0 0.0
2015-May-22 08:31N 39°26' W 000°19'0 0.0
2015-May-22 07:31N 39°26' W 000°19'0 0.0
2015-May-22 06:31N 39°26' W 000°19'0 0.0
2015-May-22 05:31N 39°26' W 000°19'0 0.0
2015-May-22 04:31N 39°26' W 000°19'0 0.0
2015-May-22 03:31N 39°26' W 000°19'0 0.0
2015-May-22 02:31N 39°26' W 000°19'0 0.0
2015-May-22 01:31N 39°26' W 000°19'0 0.0
2015-May-22 00:31N 39°26' W 000°19'0 0.0
2015-May-21 23:28N 39°26' W 000°19'0 0.0
2015-May-21 22:31N 39°26' W 000°19'0 0.0
2015-May-21 21:31N 39°26' W 000°19'0 0.0
2015-May-21 20:31N 39°26' W 000°19'0 0.0
2015-May-21 19:28N 39°26' W 000°19'0 0.0
2015-May-21 18:31N 39°26' W 000°19'0 0.0
2015-May-21 17:31N 39°26' W 000°19'0 0.0
2015-May-21 16:31N 39°26' W 000°19'5 4.8
2015-May-21 15:33N 39°27' W 000°13'41811.6
2015-May-20 03:33N 43°13' E 007°36'1716.8
2015-May-20 02:33N 43°20' E 007°57'1716.7
2015-May-20 01:33N 43°27' E 008°17'1716.6
2015-May-20 00:33N 43°35' E 008°38'1616.4
2015-May-19 23:33N 43°42' E 008°58'1616.2
2015-May-19 22:33N 43°49' E 009°18'1716.7
2015-May-19 21:33N 43°56' E 009°39'1211.9
2015-May-19 20:33N 44°05' E 009°51'2 1.6
2015-May-19 19:31N 44°06' E 009°51'0 0.0
2015-May-19 18:31N 44°06' E 009°51'0 0.0
2015-May-19 17:31N 44°06' E 009°51'0 0.0
2015-May-19 16:31N 44°06' E 009°51'0 0.0
2015-May-19 15:19N 44°06' E 009°51'0 0.0
2015-May-19 14:31N 44°06' E 009°51'0 0.0
2015-May-19 13:31N 44°06' E 009°51'0 0.0
2015-May-19 12:31N 44°06' E 009°51'0 0.0
2015-May-19 11:31N 44°06' E 009°51'0 0.0
2015-May-19 10:31N 44°06' E 009°51'0 0.0
2015-May-19 09:31N 44°06' E 009°51'0 0.0
2015-May-19 08:31N 44°06' E 009°51'0 0.0
2015-May-19 07:31N 44°06' E 009°51'0 0.0
2015-May-19 06:31N 44°06' E 009°51'0 0.0
2015-May-19 05:31N 44°06' E 009°51'0 0.0
2015-May-19 04:28N 44°06' E 009°51'0 0.0
2015-May-19 03:31N 44°06' E 009°51'0 0.0
2015-May-19 02:31N 44°06' E 009°51'0 0.0
2015-May-19 01:31N 44°06' E 009°51'0 0.0
2015-May-19 00:31N 44°06' E 009°51'0 0.0
2015-May-18 23:31N 44°06' E 009°51'0 0.0
2015-May-18 22:31N 44°06' E 009°51'0 0.0
2015-May-18 21:31N 44°06' E 009°51'0 0.0
2015-May-18 20:31N 44°06' E 009°51'0 0.0
2015-May-18 19:31N 44°06' E 009°51'0 0.0
2015-May-18 18:31N 44°06' E 009°51'0 0.0
2015-May-18 17:31N 44°06' E 009°51'0 0.0
2015-May-18 16:31N 44°06' E 009°51'0 0.0
2015-May-18 15:31N 44°06' E 009°51'0 0.0
2015-May-18 14:31N 44°06' E 009°51'0 0.0
2015-May-18 13:31N 44°06' E 009°51'0 0.0
2015-May-18 12:31N 44°06' E 009°51'0 0.0
2015-May-18 11:31N 44°06' E 009°51'0 0.0
2015-May-18 10:31N 44°06' E 009°51'1 0.6
2015-May-18 09:33N 44°06' E 009°51'8 7.7
2015-May-18 08:33N 43°59' E 009°54'1212.3
2015-May-18 07:33N 43°47' E 009°49'1515.0
2015-May-18 06:33N 43°32' E 009°43'1515.3
2015-May-18 05:33N 43°17' E 009°42'1515.1
2015-May-18 04:33N 43°02' E 009°40'1514.9
2015-May-18 03:33N 42°50' E 009°52'3115.4
2015-May-18 01:33N 42°30' E 010°25'1615.5
2015-May-18 00:32N 42°20' E 010°41'12816.0
2015-May-17 16:33N 41°06' E 013°01'1616.1
2015-May-17 15:33N 40°57' E 013°18'1616.0
2015-May-17 14:33N 40°48' E 013°35'1715.6
2015-May-17 13:29N 40°40' E 013°55'1516.0
2015-May-17 12:33N 40°46' E 014°13'6 5.6
2015-May-17 11:32N 40°50' E 014°17'1 0.1
2015-May-16 13:33N 40°49' E 014°17'9 9.2
2015-May-16 12:33N 40°40' E 014°13'1616.2
2015-May-16 11:33N 40°24' E 014°16'1919.4
2015-May-16 10:33N 40°08' E 014°29'87 2.3
2015-May-14 21:11N 38°41' E 014°17'913.5
2015-May-14 20:33N 38°41' E 014°07'1313.4
2015-May-14 19:33N 38°39' E 013°50'1313.4
2015-May-14 18:33N 38°38' E 013°33'1313.1
2015-May-14 17:34N 38°36' E 013°16'1313.4
2015-May-14 16:34N 38°35' E 012°59'1413.7
2015-May-14 15:34N 38°35' E 012°41'1413.6
2015-May-14 14:33N 38°36' E 012°24'1413.7
2015-May-14 13:33N 38°36' E 012°06'1413.8
2015-May-14 12:32N 38°36' E 011°49'1313.6
2015-May-14 11:33N 38°37' E 011°31'1413.7
2015-May-14 10:34N 38°37' E 011°14'1413.8
2015-May-14 09:34N 38°37' E 010°56'3314.1
2015-May-14 07:15N 38°38' E 010°15'1317.3
2015-May-14 06:31N 38°38' E 009°58'1414.9
2015-May-14 05:33N 38°39' E 009°40'1514.2
2015-May-14 04:32N 38°39' E 009°21'1414.1
2015-May-14 03:33N 38°39' E 009°04'1514.5
2015-May-14 02:32N 38°40' E 008°45'2914.5
2015-May-14 00:32N 38°49' E 008°10'3614.6
2015-May-13 22:05N 39°06' E 007°29'6914.3
2015-May-13 17:13N 39°39' E 006°10'1014.9
2015-May-13 16:33N 39°43' E 005°59'1515.0
2015-May-13 15:33N 39°50' E 005°41'1515.4
2015-May-13 14:34N 39°58' E 005°24'10014.1
2015-May-13 07:31N 40°44' E 003°29'1313.7
2015-May-13 06:33N 40°51' E 003°13'1414.5
2015-May-13 05:33N 40°58' E 002°57'1414.4
2015-May-13 04:33N 41°04' E 002°39'1413.7
2015-May-13 03:33N 41°10' E 002°23'1312.6
2015-May-13 02:33N 41°18' E 002°10'1 1.2
2015-May-13 01:33N 41°18' E 002°09'0 0.0
2015-May-13 00:32N 41°18' E 002°09'0 0.0
2015-May-12 23:17N 41°18' E 002°09'0 0.0
2015-May-12 22:26N 41°18' E 002°09'0 0.0
2015-May-12 21:29N 41°18' E 002°09'0 0.0
2015-May-12 19:14N 41°18' E 002°09'0 0.0
2015-May-12 18:26N 41°18' E 002°09'0 0.0
2015-May-12 17:32N 41°18' E 002°09'0 0.0
2015-May-12 16:32N 41°18' E 002°09'1 0.8
2015-May-12 15:30N 41°19' E 002°10'6 6.9
2015-May-12 14:33N 41°12' E 002°10'1919.5
2015-May-12 13:33N 40°55' E 001°57'  

Dump ship's entire track history